Time;durP1;ratioP1;P1;durP2;ratioP2;P2;SDS_P1;SDS_P2;PMS_P1;PMS_P2;Temp;Humidity;BMP_temperature;BMP_pressure;BME280_temperature;BME280_humidity;BME280_pressure;Samples;Min_cycle;Max_cycle;Signal;HPM_P1;HPM_P2
2022/12/25 00:01:41;;;;;;;;;27.00;21.33;;;;;11.57;92.80;101069.19;4977907;27;45319;-47
2022/12/25 00:04:06;;;;;;;;;20.00;18.67;;;;;11.58;92.87;101068.19;4976269;28;45485;-51
2022/12/25 00:06:32;;;;;;;;;22.33;19.00;;;;;11.61;92.90;101083.06;4976411;28;45531;-47
2022/12/25 00:08:57;;;;;;;;;28.00;20.67;;;;;11.62;92.91;101072.22;4976501;28;45531;-49
2022/12/25 00:11:22;;;;;;;;;26.00;20.00;;;;;11.64;93.09;101077.44;4976063;28;46037;-61
2022/12/25 00:13:48;;;;;;;;;27.67;23.67;;;;;11.61;92.81;101075.91;4976153;28;45248;-47
2022/12/25 00:16:20;;;;;;;;;27.33;21.33;;;;;11.62;92.82;101074.06;4976362;28;45237;-50
2022/12/25 00:18:46;;;;;;;;;29.00;23.00;;;;;11.57;92.62;101066.50;4976555;28;45379;-48
2022/12/25 00:21:12;;;;;;;;;29.33;22.00;;;;;11.61;92.94;101075.06;4975744;28;46353;-58
2022/12/25 00:23:37;;;;;;;;;26.67;21.00;;;;;11.60;92.78;101066.22;4975838;28;45142;-61
2022/12/25 00:26:11;;;;;;;;;31.33;22.33;;;;;11.60;92.44;101070.72;4977501;28;45361;-48
2022/12/25 00:28:37;;;;;;;;;25.00;19.67;;;;;11.57;92.70;101063.84;4976377;28;45259;-46
2022/12/25 00:31:05;;;;;;;;;23.67;20.00;;;;;11.63;92.77;101057.09;4975654;28;47353;-61
2022/12/25 00:33:32;;;;;;;;;30.00;24.33;;;;;11.62;92.76;101053.59;4975796;28;45290;-46
2022/12/25 00:35:59;;;;;;;;;19.33;19.33;;;;;11.62;93.02;101050.91;4975874;28;45284;-46
2022/12/25 00:38:25;;;;;;;;;32.33;20.67;;;;;11.60;93.04;101042.25;4975798;28;45385;-49
2022/12/25 00:40:51;;;;;;;;;25.33;23.67;;;;;11.66;92.66;101070.13;4975501;28;45458;-45
2022/12/25 00:43:16;;;;;;;;;32.67;24.33;;;;;11.67;92.52;101071.78;4975442;28;45550;-51
2022/12/25 00:45:41;;;;;;;;;32.33;25.33;;;;;11.71;92.40;101065.19;4975939;28;45293;-54
2022/12/25 00:48:07;;;;;;;;;41.33;30.67;;;;;11.72;91.91;101066.91;4975738;28;45386;-58
2022/12/25 00:50:32;;;;;;;;;30.67;27.00;;;;;11.73;92.46;101060.56;4976929;28;46937;-50
2022/12/25 00:52:57;;;;;;;;;27.67;23.67;;;;;11.75;92.10;101058.59;4975773;28;45273;-60
2022/12/25 00:55:23;;;;;;;;;33.00;22.67;;;;;11.64;92.29;101032.13;4975826;28;45667;-56
2022/12/25 00:57:48;;;;;;;;;28.00;25.00;;;;;11.76;92.50;101043.47;4975727;28;45480;-59
2022/12/25 01:00:14;;;;;;;;;24.33;23.00;;;;;11.73;92.11;101040.09;4975558;28;45225;-52
2022/12/25 01:02:39;;;;;;;;;35.33;19.33;;;;;11.78;92.60;101034.31;4974764;28;45508;-62
2022/12/25 01:05:05;;;;;;;;;22.67;19.67;;;;;11.80;91.96;101034.16;4977722;28;45495;-58
2022/12/25 01:07:31;;;;;;;;;24.67;21.33;;;;;11.79;92.21;101035.97;4975618;28;45299;-62
2022/12/25 01:12:42;;;;;;;;;24.00;19.33;;;;;11.77;92.31;101037.13;4975224;28;45401;-51
2022/12/25 01:15:09;;;;;;;;;18.33;14.67;;;;;11.77;91.48;101034.47;4975307;28;45252;-50
2022/12/25 01:17:35;;;;;;;;;17.00;17.00;;;;;11.77;92.04;101040.63;4975885;28;45249;-63
2022/12/25 01:20:01;;;;;;;;;18.67;18.00;;;;;11.68;92.13;101023.69;4975123;28;46207;-58
2022/12/25 01:22:26;;;;;;;;;22.67;18.00;;;;;11.77;92.14;101034.47;4975380;28;45297;-59
2022/12/25 01:24:51;;;;;;;;;26.00;17.00;;;;;11.81;92.26;101039.34;4975552;28;45609;-47
2022/12/25 01:27:17;;;;;;;;;23.00;18.50;;;;;11.77;92.37;101029.97;4975464;28;45252;-60
2022/12/25 01:29:45;;;;;;;;;20.67;18.00;;;;;11.79;92.38;101040.47;4975396;28;47713;-52
2022/12/25 01:32:10;;;;;;;;;27.67;18.67;;;;;11.80;92.12;101035.03;4974968;28;45278;-59
2022/12/25 01:34:35;;;;;;;;;24.50;18.50;;;;;11.82;92.17;101037.53;4975074;28;45455;-57
2022/12/25 01:37:01;;;;;;;;;19.67;14.33;;;;;11.78;92.59;101038.81;4976925;28;45483;-48
2022/12/25 01:39:28;;;;;;;;;19.00;18.67;;;;;11.85;92.26;101051.44;4975023;28;46603;-60
2022/12/25 01:41:53;;;;;;;;;20.67;13.33;;;;;11.86;91.86;101057.59;4973776;28;45422;-54
2022/12/25 01:44:18;;;;;;;;;20.00;18.00;;;;;11.88;92.40;101055.63;4974910;28;45325;-57
2022/12/25 01:46:44;;;;;;;;;19.00;15.00;;;;;11.91;92.04;101058.81;4975359;28;45311;-53
2022/12/25 01:49:37;;;;;;;;;17.33;15.33;;;;;11.95;91.87;101054.03;4974864;28;46033;-63
2022/12/25 01:52:18;;;;;;;;;18.00;16.33;;;;;11.89;91.52;101046.66;4974223;27;45325;-63
2022/12/25 01:54:51;;;;;;;;;21.33;16.00;;;;;11.98;91.70;101057.25;4975239;28;45336;-53
2022/12/25 01:57:26;;;;;;;;;16.67;13.33;;;;;11.95;91.59;101030.88;4975072;28;45162;-54
2022/12/25 01:59:52;;;;;;;;;18.33;15.33;;;;;12.03;91.50;101048.81;4974870;28;45366;-51
2022/12/25 02:02:18;;;;;;;;;13.00;12.00;;;;;11.92;91.08;101025.00;4975138;28;45190;-61
2022/12/25 02:04:53;;;;;;;;;17.00;13.33;;;;;12.04;91.29;101042.47;4974937;28;45227;-59
2022/12/25 02:07:21;;;;;;;;;19.00;15.00;;;;;12.05;91.55;101024.66;4975231;28;45347;-54
2022/12/25 02:09:47;;;;;;;;;23.33;16.00;;;;;12.03;91.01;101024.81;4974714;28;46505;-51
2022/12/25 02:12:24;;;;;;;;;22.00;18.33;;;;;12.00;90.84;101022.44;4974951;28;45490;-54
2022/12/25 02:14:53;;;;;;;;;23.67;18.33;;;;;12.05;91.27;101045.97;4975055;28;45159;-60
2022/12/25 02:17:27;;;;;;;;;17.00;12.67;;;;;12.03;91.15;101047.97;4975157;28;45207;-48
2022/12/25 02:20:11;;;;;;;;;27.00;18.33;;;;;12.01;91.44;101039.28;4974660;28;46122;-53
2022/12/25 02:23:13;;;;;;;;;24.00;21.00;;;;;12.03;91.19;101034.66;4974834;27;45318;-54
2022/12/25 02:25:54;;;;;;;;;14.00;13.00;;;;;12.04;91.40;101026.47;4974935;28;45287;-52
2022/12/25 02:28:35;;;;;;;;;10.33;10.33;;;;;12.00;91.11;101019.78;4974251;28;45458;-56
2022/12/25 02:31:09;;;;;;;;;19.33;15.00;;;;;12.02;91.83;101025.81;4974410;28;45702;-50
2022/12/25 02:34:02;;;;;;;;;21.00;13.00;;;;;12.01;91.37;101033.94;4974469;28;45350;-59
2022/12/25 02:36:34;;;;;;;;;10.33;8.67;;;;;12.05;91.71;101035.31;4974701;28;45402;-53
2022/12/25 02:41:51;;;;;;;;;17.00;14.33;;;;;11.93;91.73;100998.22;4974210;28;45496;-52
2022/12/25 03:06:45;;;;;;;;;23.67;18.33;;;;;12.02;92.44;101012.47;4974642;28;45304;-52
2022/12/25 03:13:12;;;;;;;;;26.33;17.67;;;;;12.01;92.00;100980.63;5034469;28;45408;-61
2022/12/25 03:18:25;;;;;;;;;26.67;17.67;;;;;11.98;92.92;100987.94;4974943;28;45456;-61
2022/12/25 03:29:08;;;;;;;;;21.67;16.33;;;;;11.96;92.64;100983.72;4978381;28;45286;-46
2022/12/25 03:31:50;;;;;;;;;20.00;18.00;;;;;11.94;93.12;100967.91;4978462;28;45558;-48
2022/12/25 03:37:23;;;;;;;;;25.00;16.00;;;;;11.91;93.08;100965.53;4978170;28;45387;-49
2022/12/25 04:38:30;;;;;;;;;31.00;26.33;;;;;12.02;92.68;100892.50;4976066;28;45396;-50
2022/12/25 04:40:55;;;;;;;;;33.33;23.00;;;;;11.94;92.42;100863.94;4977085;28;45584;-49
2022/12/25 04:43:23;;;;;;;;;29.33;24.67;;;;;12.03;92.55;100890.66;4976644;28;47019;-49
2022/12/25 04:45:53;;;;;;;;;38.00;28.67;;;;;12.03;92.86;100890.66;4976527;28;45379;-50
2022/12/25 04:48:19;;;;;;;;;27.67;23.00;;;;;12.03;92.37;100899.50;4976825;28;45486;-45
2022/12/25 04:50:44;;;;;;;;;25.00;19.67;;;;;12.06;92.73;100909.88;4976873;28;45467;-48
2022/12/25 04:53:09;;;;;;;;;31.00;25.67;;;;;12.03;92.31;100907.50;4985772;28;45479;-49
2022/12/25 04:55:34;;;;;;;;;32.00;23.33;;;;;12.00;92.97;100913.13;4975694;28;45288;-48
2022/12/25 04:58:00;;;;;;;;;27.00;23.67;;;;;11.98;93.09;100902.63;4975852;28;45478;-47
2022/12/25 05:00:25;;;;;;;;;31.00;23.00;;;;;12.03;92.85;100910.16;4975680;28;45405;-46
2022/12/25 05:02:50;;;;;;;;;32.33;23.00;;;;;12.05;92.72;100897.53;4975716;28;47065;-48
2022/12/25 05:05:16;;;;;;;;;34.67;26.67;;;;;12.09;92.63;100901.53;4974429;28;45337;-46
2022/12/25 05:07:41;;;;;;;;;35.00;20.00;;;;;12.09;92.61;100887.38;4975366;28;46066;-49
2022/12/25 05:10:07;;;;;;;;;25.33;22.33;;;;;12.08;92.15;100846.53;4975949;28;45404;-46
2022/12/25 05:12:32;;;;;;;;;25.67;21.00;;;;;12.02;92.39;100806.34;4975631;28;46295;-47
2022/12/25 05:14:58;;;;;;;;;26.00;22.33;;;;;12.04;92.30;100807.84;4975276;28;45522;-58
2022/12/25 05:17:23;;;;;;;;;21.00;20.67;;;;;12.10;92.00;100817.06;4975907;28;45461;-48
2022/12/25 05:19:48;;;;;;;;;29.00;18.67;;;;;12.09;91.98;100813.53;4976807;28;45570;-59
2022/12/25 05:22:14;;;;;;;;;21.67;17.00;;;;;12.09;92.06;100829.53;4975479;28;47232;-46
2022/12/25 05:24:39;;;;;;;;;29.00;20.00;;;;;12.09;91.79;100855.38;4975473;28;45363;-63
2022/12/25 05:27:04;;;;;;;;;24.67;19.00;;;;;12.05;92.43;100849.53;4975692;28;45298;-50
2022/12/25 05:29:30;;;;;;;;;29.00;21.00;;;;;12.05;92.03;100844.19;4975554;28;45275;-51
2022/12/25 05:31:55;;;;;;;;;24.00;18.00;;;;;12.08;92.22;100851.03;4973998;28;47113;-49
2022/12/25 05:34:20;;;;;;;;;19.00;15.00;;;;;12.02;92.29;100839.16;4975490;28;45169;-50
2022/12/25 05:36:46;;;;;;;;;20.33;12.33;;;;;12.06;92.11;100837.88;4975706;28;45244;-52
2022/12/25 05:39:11;;;;;;;;;40.00;32.33;;;;;12.06;92.38;100834.38;4975588;28;45312;-59
2022/12/25 05:41:36;;;;;;;;;25.00;16.33;;;;;12.04;91.94;100836.34;4976526;28;47212;-52
2022/12/25 05:44:02;;;;;;;;;24.67;19.00;;;;;11.99;92.70;100844.81;4975083;28;45347;-56
2022/12/25 05:46:27;;;;;;;;;27.33;19.67;;;;;12.03;92.27;100869.34;4975572;28;45415;-48
2022/12/25 05:48:52;;;;;;;;;19.67;16.33;;;;;12.05;92.35;100868.19;4974804;28;45607;-59
2022/12/25 05:51:18;;;;;;;;;16.67;15.00;;;;;12.04;92.45;100871.84;4974943;28;45366;-58
2022/12/25 05:53:43;;;;;;;;;20.67;18.67;;;;;12.04;92.22;100869.16;4973873;28;45443;-58
2022/12/25 05:56:09;;;;;;;;;17.33;13.67;;;;;11.97;92.02;100844.97;4975359;28;45627;-59
2022/12/25 05:58:37;;;;;;;;;16.33;14.00;;;;;12.04;92.57;100861.16;4975398;28;45316;-61
2022/12/25 06:01:03;;;;;;;;;16.67;15.33;;;;;12.03;92.65;100845.34;4974903;28;45449;-62
2022/12/25 06:03:28;;;;;;;;;22.33;18.67;;;;;12.03;93.07;100854.16;4974706;28;45288;-63
2022/12/25 06:05:54;;;;;;;;;21.67;15.33;;;;;12.01;92.40;100873.97;4973982;28;45332;-60
2022/12/25 06:08:19;;;;;;;;;19.00;17.33;;;;;12.02;92.19;100857.00;4975440;28;45280;-51
2022/12/25 06:10:45;;;;;;;;;20.00;15.33;;;;;12.01;92.63;100849.97;4974812;28;45307;-48
2022/12/25 06:13:11;;;;;;;;;17.33;16.00;;;;;12.01;92.56;100840.16;4974676;28;45249;-47
2022/12/25 06:15:40;;;;;;;;;20.00;16.67;;;;;11.99;92.06;100834.97;4974806;28;45409;-52
2022/12/25 06:18:05;;;;;;;;;15.00;14.33;;;;;11.96;92.22;100835.28;4975315;28;45358;-48
2022/12/25 06:20:31;;;;;;;;;17.33;16.00;;;;;11.94;92.62;100826.59;4974787;28;45421;-50
2022/12/25 06:22:56;;;;;;;;;19.33;17.00;;;;;11.86;92.16;100813.19;4974881;28;45257;-49
2022/12/25 06:25:22;;;;;;;;;12.00;12.00;;;;;11.93;92.06;100818.78;4975199;28;45393;-47
2022/12/25 06:27:47;;;;;;;;;18.00;14.00;;;;;11.95;92.38;100816.78;4974907;28;45207;-48
2022/12/25 06:30:13;;;;;;;;;16.00;14.00;;;;;11.95;92.15;100822.09;4974599;28;45558;-51
2022/12/25 06:32:38;;;;;;;;;19.00;15.00;;;;;11.94;92.08;100812.44;4974643;28;45313;-49
2022/12/25 06:35:05;;;;;;;;;19.33;15.33;;;;;11.93;92.19;100802.78;4974926;28;45284;-48
2022/12/25 06:37:31;;;;;;;;;24.00;14.67;;;;;11.92;92.57;100801.06;4974855;28;45332;-48
2022/12/25 06:39:56;;;;;;;;;25.33;15.00;;;;;11.88;92.33;100803.25;4974296;28;46252;-49
2022/12/25 06:42:21;;;;;;;;;16.33;11.67;;;;;11.90;92.24;100803.06;4974428;28;45380;-48
2022/12/25 06:44:47;;;;;;;;;15.00;13.00;;;;;11.87;92.47;100795.38;4974531;28;45320;-48
2022/12/25 06:47:12;;;;;;;;;16.33;13.00;;;;;11.87;92.46;100785.56;4974691;28;45301;-46
2022/12/25 06:49:37;;;;;;;;;19.00;14.67;;;;;11.90;92.48;100787.09;4974113;28;46189;-52
2022/12/25 06:52:03;;;;;;;;;13.33;12.00;;;;;11.90;91.90;100792.41;4974230;28;45472;-47
2022/12/25 06:54:28;;;;;;;;;18.00;12.33;;;;;11.90;92.14;100805.75;4975929;28;45901;-49
2022/12/25 06:56:53;;;;;;;;;17.67;11.67;;;;;11.88;92.13;100805.91;4973505;28;45427;-51
2022/12/25 06:59:19;;;;;;;;;13.00;12.67;;;;;11.86;91.86;100797.22;4973685;28;46213;-50
2022/12/25 07:01:47;;;;;;;;;15.00;12.67;;;;;11.83;92.57;100808.16;4973519;28;45410;-48
2022/12/25 07:04:18;;;;;;;;;12.00;9.00;;;;;11.83;92.17;100810.84;4974322;28;45517;-48
2022/12/25 07:06:43;;;;;;;;;11.67;10.67;;;;;11.82;92.23;100817.13;4974436;28;45155;-53
2022/12/25 07:09:09;;;;;;;;;14.00;10.33;;;;;11.85;91.97;100824.03;4973889;28;45968;-50
2022/12/25 07:11:34;;;;;;;;;15.33;12.67;;;;;11.81;91.79;100809.31;4973771;28;45429;-51
2022/12/25 07:14:00;;;;;;;;;18.00;10.00;;;;;11.55;91.98;100770.09;4973953;28;45369;-48
2022/12/25 07:16:25;;;;;;;;;12.33;10.33;;;;;11.86;91.81;100815.03;4974351;28;45572;-46
2022/12/25 07:18:50;;;;;;;;;11.00;11.00;;;;;11.86;91.88;100807.03;4974216;28;46028;-53
2022/12/25 07:21:18;;;;;;;;;11.33;10.67;;;;;11.85;91.33;100800.88;4973829;28;45389;-49
2022/12/25 07:23:46;;;;;;;;;12.33;12.33;;;;;11.83;91.53;100786.00;4974121;28;45488;-48
2022/12/25 07:26:12;;;;;;;;;16.33;9.33;;;;;11.78;91.50;100775.78;4974162;28;45618;-54
2022/12/25 07:28:37;;;;;;;;;16.33;10.33;;;;;11.76;91.68;100767.13;4973764;28;47095;-51
2022/12/25 07:31:06;;;;;;;;;12.67;10.33;;;;;11.78;91.86;100761.63;4973511;28;45508;-50
2022/12/25 07:33:32;;;;;;;;;14.33;12.00;;;;;11.76;91.33;100752.97;4973933;28;45499;-50
2022/12/25 07:35:58;;;;;;;;;14.00;12.00;;;;;11.74;92.08;100745.94;4973883;28;45388;-59
2022/12/25 07:38:24;;;;;;;;;13.67;11.67;;;;;11.71;91.99;100748.94;4973466;28;46337;-51
2022/12/25 07:40:49;;;;;;;;;11.00;8.00;;;;;11.70;91.79;100741.06;4973451;28;45210;-50
2022/12/25 07:43:14;;;;;;;;;12.00;12.00;;;;;11.68;91.19;100732.41;4973699;28;45270;-48
2022/12/25 07:45:40;;;;;;;;;9.67;8.00;;;;;11.69;91.60;100734.91;4973503;28;45510;-62
2022/12/25 07:48:06;;;;;;;;;11.00;7.67;;;;;11.67;91.38;100712.06;4973361;28;47671;-59
2022/12/25 07:50:31;;;;;;;;;11.00;9.67;;;;;11.67;91.76;100715.59;4972157;28;45969;-64
2022/12/25 07:52:57;;;;;;;;;14.67;9.00;;;;;11.65;91.29;100732.69;4973424;28;45289;-61
2022/12/25 07:55:22;;;;;;;;;12.00;11.00;;;;;11.62;91.09;100747.16;4973711;28;45356;-60
2022/12/25 07:57:47;;;;;;;;;14.33;9.00;;;;;11.60;91.55;100751.81;4973213;28;46311;-56
2022/12/25 08:00:13;;;;;;;;;14.67;11.67;;;;;11.60;91.52;100754.47;4973083;28;45413;-60
2022/12/25 08:02:39;;;;;;;;;15.33;11.00;;;;;11.58;91.00;100758.28;4973465;28;45268;-52
2022/12/25 08:05:05;;;;;;;;;17.00;9.33;;;;;11.58;90.64;100776.94;4972248;28;45371;-55
2022/12/25 08:07:30;;;;;;;;;7.67;7.00;;;;;11.58;91.14;100771.59;4973212;28;45401;-62
2022/12/25 08:09:56;;;;;;;;;12.33;9.00;;;;;11.58;90.86;100767.09;4973262;28;45379;-50
2022/12/25 08:12:21;;;;;;;;;12.33;10.33;;;;;11.59;90.55;100762.63;4975803;28;45417;-46
2022/12/25 08:14:46;;;;;;;;;9.00;8.00;;;;;11.57;90.29;100762.78;4976548;28;45340;-62
2022/12/25 08:17:12;;;;;;;;;12.00;11.00;;;;;11.56;90.25;100787.75;4976289;28;46350;-46
2022/12/25 08:19:37;;;;;;;;;9.67;8.00;;;;;11.54;90.37;100792.38;4976128;28;47471;-59
2022/12/25 08:22:02;;;;;;;;;6.67;6.67;;;;;11.52;90.63;100789.03;4976584;28;45294;-59
2022/12/25 08:24:28;;;;;;;;;18.00;12.33;;;;;11.54;90.04;100789.72;4976623;28;45349;-54
2022/12/25 08:26:53;;;;;;;;;9.33;9.33;;;;;11.52;90.62;100789.03;4976274;28;46150;-62
2022/12/25 08:29:18;;;;;;;;;17.00;9.67;;;;;11.53;90.34;100773.88;4976073;28;45200;-61
2022/12/25 08:31:44;;;;;;;;;13.00;12.33;;;;;11.53;90.01;100772.06;4976415;28;45208;-48
2022/12/25 08:34:10;;;;;;;;;11.00;7.67;;;;;11.53;90.50;100763.22;4976435;28;45208;-49
2022/12/25 08:36:36;;;;;;;;;13.67;9.67;;;;;11.53;90.22;100761.41;4976123;28;45443;-61
2022/12/25 08:39:02;;;;;;;;;9.67;9.33;;;;;11.53;89.64;100764.06;4975808;28;45486;-62
2022/12/25 08:41:27;;;;;;;;;11.00;9.33;;;;;11.49;89.53;100779.50;4975850;28;45449;-58
2022/12/25 08:43:53;;;;;;;;;12.67;11.00;;;;;11.49;89.50;100768.03;4976273;28;45339;-59
2022/12/25 08:46:18;;;;;;;;;13.00;8.33;;;;;11.46;89.51;100745.22;4975693;28;45991;-57
2022/12/25 08:48:46;;;;;;;;;13.33;8.67;;;;;11.47;89.81;100754.88;4975487;28;45430;-58
2022/12/25 08:51:13;;;;;;;;;20.67;11.00;;;;;11.46;89.55;100770.97;4976163;28;45433;-62
2022/12/25 08:53:40;;;;;;;;;15.67;12.33;;;;;11.45;89.12;100750.66;4975886;28;45255;-62
2022/12/25 08:56:06;;;;;;;;;14.00;10.33;;;;;11.43;89.34;100736.69;4975402;28;46075;-57
2022/12/25 08:58:32;;;;;;;;;18.00;11.33;;;;;11.42;89.17;100732.34;4975773;28;45555;-52
2022/12/25 09:00:58;;;;;;;;;13.00;9.00;;;;;11.40;89.26;100751.13;4975670;28;45434;-58
2022/12/25 09:03:23;;;;;;;;;13.33;7.33;;;;;11.19;89.00;100742.59;4976333;28;45325;-51
2022/12/25 09:05:50;;;;;;;;;13.67;11.33;;;;;11.38;89.22;100765.59;4975308;28;45364;-58
2022/12/25 09:08:16;;;;;;;;;11.33;11.33;;;;;11.41;88.96;100762.63;4975368;28;45445;-59
2022/12/25 09:10:41;;;;;;;;;16.67;9.67;;;;;11.45;89.13;100772.81;4975771;28;45445;-64
2022/12/25 09:13:07;;;;;;;;;16.67;9.67;;;;;11.48;88.77;100761.88;4975609;28;45538;-49
2022/12/25 09:15:32;;;;;;;;;13.00;9.33;;;;;11.49;88.92;100762.69;4975259;28;45237;-60
2022/12/25 09:17:58;;;;;;;;;14.33;12.33;;;;;11.48;88.73;100783.19;4976723;28;45328;-52
2022/12/25 09:20:23;;;;;;;;;19.67;12.33;;;;;11.46;88.32;100766.53;4975708;28;45433;-48
2022/12/25 09:22:48;;;;;;;;;15.67;11.00;;;;;11.48;88.18;100769.03;4975114;28;45393;-60
2022/12/25 09:25:14;;;;;;;;;16.33;13.00;;;;;11.51;88.25;100768.72;4975206;28;49321;-62
2022/12/25 09:27:39;;;;;;;;;11.67;11.67;;;;;11.52;88.43;100772.22;4975704;28;45417;-61
2022/12/25 09:30:05;;;;;;;;;13.00;12.00;;;;;11.43;88.37;100772.16;4975852;28;45186;-52
2022/12/25 09:32:31;;;;;;;;;17.67;13.33;;;;;11.40;87.83;100780.44;4974603;28;45517;-60
2022/12/25 09:34:56;;;;;;;;;13.00;11.67;;;;;11.47;88.15;100797.50;4975517;28;45262;-47
2022/12/25 09:37:22;;;;;;;;;13.00;13.00;;;;;11.47;87.94;100797.50;4975613;28;45488;-52
2022/12/25 09:39:47;;;;;;;;;16.33;11.67;;;;;11.38;87.71;100768.28;4975694;28;45284;-63
2022/12/25 09:42:18;;;;;;;;;11.67;11.00;;;;;11.46;87.61;100773.66;4975758;28;45384;-50
2022/12/25 09:44:49;;;;;;;;;12.67;9.33;;;;;11.47;87.52;100770.84;4975440;28;47111;-48
2022/12/25 09:47:22;;;;;;;;;17.33;13.00;;;;;11.45;87.77;100756.00;4975140;28;45276;-48
2022/12/25 09:50:02;;;;;;;;;14.33;13.00;;;;;11.51;87.61;100760.72;4975276;28;45395;-48
2022/12/25 09:52:40;;;;;;;;;13.00;12.00;;;;;11.53;86.90;100763.22;4975311;28;45228;-50
2022/12/25 09:55:17;;;;;;;;;14.00;12.00;;;;;11.53;86.91;100774.72;4974892;28;45350;-47
2022/12/25 09:57:43;;;;;;;;;9.67;9.67;;;;;11.55;86.95;100774.59;4974870;28;45363;-54
2022/12/25 10:00:14;;;;;;;;;12.67;9.33;;;;;11.56;86.72;100792.25;4974891;28;45298;-52
2022/12/25 10:02:52;;;;;;;;;9.67;8.00;;;;;11.57;87.03;100781.44;4975149;28;45339;-50
2022/12/25 10:05:31;;;;;;;;;9.67;8.00;;;;;11.58;86.50;100776.94;4974783;28;46272;-47
2022/12/25 10:07:59;;;;;;;;;11.00;11.00;;;;;11.59;86.37;100774.13;4974802;28;45364;-46
2022/12/25 10:10:49;;;;;;;;;13.33;12.67;;;;;11.54;86.47;100749.75;4975112;28;45265;-45
2022/12/25 10:13:20;;;;;;;;;19.33;15.33;;;;;11.65;85.68;100762.84;4975141;28;45491;-53
2022/12/25 10:16:00;;;;;;;;;15.67;12.67;;;;;11.67;85.86;100768.00;4974585;28;45459;-49
2022/12/25 10:18:37;;;;;;;;;12.67;9.33;;;;;11.70;86.14;100771.22;4975860;28;45262;-47
2022/12/25 10:21:07;;;;;;;;;15.67;9.67;;;;;11.65;85.96;100749.53;4974579;28;45272;-52
2022/12/25 10:23:40;;;;;;;;;20.33;13.67;;;;;11.76;85.05;100753.78;4975079;28;45367;-47
2022/12/25 10:26:20;;;;;;;;;12.00;6.00;;;;;11.77;85.15;100757.28;4974605;28;45270;-47
2022/12/25 10:28:52;;;;;;;;;13.00;11.67;;;;;11.83;85.21;100759.34;4974732;28;45301;-45
2022/12/25 10:31:21;;;;;;;;;17.33;11.67;;;;;11.84;84.80;100747.69;4974496;28;45463;-57
2022/12/25 10:33:48;;;;;;;;;9.67;9.00;;;;;11.86;85.07;100751.91;4974781;28;45421;-61
2022/12/25 10:36:18;;;;;;;;;7.00;7.00;;;;;11.89;84.81;100753.44;4974333;28;46192;-45
2022/12/25 10:38:43;;;;;;;;;13.33;9.33;;;;;11.92;84.57;100747.75;4974395;28;45443;-50
2022/12/25 10:41:11;;;;;;;;;9.33;9.33;;;;;11.94;83.80;100748.47;4974513;28;45371;-55
2022/12/25 10:43:46;;;;;;;;;11.67;9.33;;;;;11.97;84.10;100759.66;4974731;28;45339;-48
2022/12/25 10:46:14;;;;;;;;;9.33;8.00;;;;;11.98;83.76;100768.50;4973807;28;47677;-58
2022/12/25 10:48:47;;;;;;;;;12.00;10.67;;;;;12.02;83.55;100759.19;4974219;28;45326;-60
2022/12/25 10:51:13;;;;;;;;;11.00;11.00;;;;;12.04;83.67;100741.19;4973409;28;45257;-50
2022/12/25 10:53:42;;;;;;;;;9.67;9.67;;;;;12.03;83.59;100739.53;4974673;28;45314;-55
2022/12/25 10:56:19;;;;;;;;;26.00;14.00;;;;;12.05;83.18;100718.03;4974561;28;46078;-50
2022/12/25 10:58:44;;;;;;;;;23.67;14.33;;;;;12.06;82.64;100733.88;4974214;28;45389;-62
2022/12/25 11:01:10;;;;;;;;;13.67;12.00;;;;;12.12;83.06;100730.56;4974190;28;45287;-63
2022/12/25 11:03:43;;;;;;;;;10.33;9.67;;;;;12.14;83.01;100741.94;4974532;28;45502;-61
2022/12/25 11:06:41;;;;;;;;;12.33;12.00;;;;;12.19;82.80;100750.31;4973961;28;46327;-61
2022/12/25 11:09:15;;;;;;;;;9.00;7.00;;;;;12.23;82.23;100743.66;4952283;28;45399;-52
2022/12/25 11:11:40;;;;;;;;;16.33;11.00;;;;;12.26;82.33;100741.66;4952406;28;45427;-56
2022/12/25 11:14:16;;;;;;;;;9.00;8.33;;;;;12.30;82.01;100732.34;4952559;28;45467;-48
2022/12/25 11:16:42;;;;;;;;;9.00;7.00;;;;;12.35;82.33;100732.72;4952271;28;46095;-50
2022/12/25 11:19:29;;;;;;;;;10.33;9.00;;;;;12.37;81.68;100722.72;4951422;28;45423;-50
2022/12/25 11:22:00;;;;;;;;;12.33;8.00;;;;;12.38;80.86;100732.41;4952329;28;45533;-51
2022/12/25 11:24:30;;;;;;;;;11.00;10.00;;;;;12.36;81.63;100727.22;4952360;28;45417;-52
2022/12/25 11:27:03;;;;;;;;;11.33;9.00;;;;;12.42;81.11;100731.91;4952188;28;45385;-50
2022/12/25 11:29:49;;;;;;;;;8.00;8.00;;;;;12.44;80.98;100743.28;4951730;28;45436;-63
2022/12/25 11:32:42;;;;;;;;;18.67;9.00;;;;;12.46;81.08;100757.28;4952056;28;45494;-60
2022/12/25 11:35:16;;;;;;;;;17.33;9.00;;;;;12.48;80.70;100763.31;4959404;28;45331;-65
2022/12/25 11:37:48;;;;;;;;;14.00;9.00;;;;;12.51;80.10;100763.97;4951876;28;46085;-60
2022/12/25 11:40:41;;;;;;;;;11.67;9.33;;;;;12.54;79.97;100767.16;4951942;28;45430;-62
2022/12/25 11:43:22;;;;;;;;;11.00;8.00;;;;;12.55;79.89;100766.16;4951978;28;45274;-61
2022/12/25 11:45:53;;;;;;;;;10.00;7.33;;;;;12.59;80.03;100780.88;4972758;28;45248;-63
2022/12/25 11:48:43;;;;;;;;;8.67;8.00;;;;;12.63;79.74;100779.56;4976359;28;46262;-61
2022/12/25 11:51:08;;;;;;;;;9.33;7.67;;;;;12.66;78.97;100779.25;4976225;27;45362;-61
2022/12/25 11:53:40;;;;;;;;;11.67;8.00;;;;;12.69;79.55;100776.25;4976695;28;45189;-56
2022/12/25 11:56:10;;;;;;;;;10.00;8.33;;;;;12.73;79.24;100774.13;4977054;28;45362;-60
2022/12/25 11:58:43;;;;;;;;;12.00;8.00;;;;;12.74;79.02;100755.25;4976271;28;45289;-58
2022/12/25 12:01:20;;;;;;;;;8.67;8.67;;;;;12.73;78.75;100732.25;4976230;28;45433;-60
2022/12/25 12:03:46;;;;;;;;;12.00;8.67;;;;;12.77;79.04;100735.44;4976414;28;45378;-49
2022/12/25 12:06:19;;;;;;;;;15.00;9.67;;;;;12.78;79.18;100750.44;4976915;28;45212;-57
2022/12/25 12:08:47;;;;;;;;;9.33;8.00;;;;;12.84;78.93;100740.94;4976193;28;47349;-62
2022/12/25 12:11:25;;;;;;;;;8.67;8.00;;;;;12.85;78.41;100745.28;4976302;28;45320;-52
2022/12/25 12:13:59;;;;;;;;;9.00;8.00;;;;;12.85;79.07;100730.13;4976530;28;45447;-53
2022/12/25 12:16:24;;;;;;;;;13.67;11.00;;;;;12.85;78.23;100722.13;4976500;28;45350;-54
2022/12/25 12:18:50;;;;;;;;;18.33;8.33;;;;;12.87;78.63;100713.94;4976313;28;45981;-50
2022/12/25 12:21:22;;;;;;;;;10.67;8.00;;;;;12.89;79.28;100719.94;4976258;28;45471;-51
2022/12/25 12:24:13;;;;;;;;;10.33;10.33;;;;;12.90;78.84;100711.78;4976681;28;45413;-61
2022/12/25 12:26:42;;;;;;;;;8.33;7.67;;;;;12.90;77.97;100697.59;4976568;28;45280;-47
2022/12/25 12:29:26;;;;;;;;;10.00;10.00;;;;;12.92;78.31;100701.75;4975830;28;45385;-50
2022/12/25 12:32:02;;;;;;;;;13.33;9.67;;;;;12.94;78.24;100704.28;4974678;28;45376;-58
2022/12/25 12:34:30;;;;;;;;;10.00;8.00;;;;;12.96;77.95;100694.25;4976210;28;45236;-63
2022/12/25 12:37:05;;;;;;;;;10.67;10.00;;;;;12.96;78.06;100686.25;4976342;28;45454;-50
2022/12/25 12:39:37;;;;;;;;;11.33;9.67;;;;;13.00;78.43;100684.91;4975845;28;45268;-60
2022/12/25 12:42:13;;;;;;;;;13.33;10.00;;;;;13.01;78.05;100693.75;4974450;28;45264;-48
2022/12/25 12:44:38;;;;;;;;;11.67;9.00;;;;;13.03;77.79;100710.47;4976129;28;45477;-49
2022/12/25 12:47:04;;;;;;;;;12.00;10.33;;;;;12.98;77.80;100703.78;4976163;28;45464;-50
2022/12/25 12:49:31;;;;;;;;;8.67;8.67;;;;;13.08;77.57;100718.81;4975676;28;45519;-58
2022/12/25 12:52:22;;;;;;;;;8.00;8.00;;;;;13.08;77.24;100692.94;4976042;28;45357;-50
2022/12/25 12:54:58;;;;;;;;;13.33;8.00;;;;;13.11;76.94;100689.97;4976054;28;45410;-48
2022/12/25 12:57:28;;;;;;;;;10.33;8.33;;;;;13.14;77.27;100696.78;4975408;28;45397;-48
2022/12/25 12:59:56;;;;;;;;;10.00;8.00;;;;;13.19;76.63;100681.97;4990395;28;46947;-55
2022/12/25 13:02:30;;;;;;;;;7.00;7.00;;;;;13.28;77.05;100698.88;4975839;28;45209;-49
2022/12/25 13:05:23;;;;;;;;;9.00;4.00;;;;;13.41;76.24;100693.03;4975858;28;45375;-55